createdAt,value
2019-02-26T00:01:28.709Z,57.10
2019-02-26T00:03:59.802Z,55.17
2019-02-26T00:06:30.316Z,57.93
2019-02-26T00:09:03.189Z,54.83
2019-02-26T00:11:36.177Z,50.03
2019-02-26T00:14:06.529Z,55.50
2019-02-26T00:16:39.681Z,64.70
2019-02-26T00:19:09.798Z,87.77
2019-02-26T00:21:43.110Z,88.53
2019-02-26T00:24:14.598Z,74.73
2019-02-26T00:26:45.759Z,79.17
2019-02-26T00:29:16.368Z,64.77
2019-02-26T00:31:48.550Z,70.87
2019-02-26T00:34:18.905Z,58.27
2019-02-26T00:36:50.381Z,70.50
2019-02-26T00:39:22.649Z,74.97
2019-02-26T00:41:53.570Z,83.07
2019-02-26T00:44:25.270Z,93.33
2019-02-26T00:46:59.362Z,87.87
2019-02-26T00:49:30.224Z,92.80
2019-02-26T00:52:00.797Z,87.97
2019-02-26T00:54:31.970Z,85.37
2019-02-26T00:57:05.751Z,90.07
2019-02-26T00:59:36.643Z,93.30
2019-02-26T01:02:07.683Z,96.23
2019-02-26T01:04:39.081Z,79.23
2019-02-26T01:07:10.075Z,87.77
2019-02-26T01:09:40.539Z,85.87
2019-02-26T01:12:11.812Z,91.63
2019-02-26T01:14:44.197Z,78.07
2019-02-26T01:17:16.980Z,65.07
2019-02-26T01:19:47.478Z,76.90
2019-02-26T01:22:18.034Z,70.63
2019-02-26T01:24:49.859Z,75.67
2019-02-26T01:27:20.646Z,81.63
2019-02-26T01:29:51.811Z,75.73
2019-02-26T01:32:24.874Z,66.00
2019-02-26T01:34:55.255Z,68.47
2019-02-26T01:37:27.695Z,72.37
2019-02-26T01:39:58.086Z,91.93
2019-02-26T01:42:29.853Z,93.20
2019-02-26T01:45:00.749Z,82.57
2019-02-26T01:47:31.340Z,90.53
2019-02-26T01:50:01.773Z,94.60
2019-02-26T01:52:32.425Z,90.40
2019-02-26T01:55:02.983Z,89.80
2019-02-26T01:57:33.493Z,92.87
2019-02-26T02:00:06.910Z,90.73
2019-02-26T02:02:38.953Z,87.47
2019-02-26T02:05:10.623Z,88.60
2019-02-26T02:07:41.293Z,75.23
2019-02-26T02:10:13.298Z,67.77
2019-02-26T02:12:43.950Z,61.30
2019-02-26T02:15:15.792Z,55.33
2019-02-26T02:17:46.968Z,62.20
2019-02-26T02:20:21.271Z,46.73
2019-02-26T02:22:49.744Z,45.07
2019-02-26T02:25:20.253Z,49.63
2019-02-26T02:27:54.172Z,53.03
2019-02-26T02:30:27.205Z,46.03
2019-02-26T02:32:57.048Z,46.50
2019-02-26T02:35:27.029Z,44.07
2019-02-26T02:38:00.139Z,42.10
2019-02-26T02:40:29.679Z,44.60
2019-02-26T02:43:03.972Z,48.70
2019-02-26T02:45:32.323Z,41.70
2019-02-26T02:48:03.303Z,50.77
2019-02-26T02:50:34.967Z,43.77
2019-02-26T02:53:05.420Z,39.10
2019-02-26T02:55:37.773Z,48.37
2019-02-26T02:58:08.093Z,51.17
2019-02-26T03:00:38.562Z,48.40
2019-02-26T03:03:09.109Z,48.80
2019-02-26T03:05:41.287Z,46.43
2019-02-26T03:08:13.954Z,50.33
2019-02-26T03:10:45.081Z,45.00
2019-02-26T03:13:16.991Z,50.60
2019-02-26T03:15:50.073Z,53.43
2019-02-26T03:18:19.834Z,48.57
2019-02-26T03:20:51.396Z,40.33
2019-02-26T03:23:22.414Z,48.13
2019-02-26T03:25:54.918Z,49.10
2019-02-26T03:28:25.100Z,49.70
2019-02-26T03:30:55.581Z,54.43
2019-02-26T03:33:26.078Z,55.33
2019-02-26T03:35:56.496Z,62.73
2019-02-26T03:38:28.863Z,55.53
2019-02-26T03:41:03.205Z,55.50
2019-02-26T03:43:34.007Z,54.33
2019-02-26T03:46:03.721Z,54.27
2019-02-26T03:48:34.220Z,51.23
2019-02-26T03:51:05.782Z,48.33
2019-02-26T03:53:38.475Z,56.70
2019-02-26T03:56:11.713Z,55.63
2019-02-26T03:58:40.552Z,60.47
2019-02-26T04:01:13.629Z,65.67
2019-02-26T04:03:43.330Z,83.53
2019-02-26T04:06:13.815Z,108.00
2019-02-26T04:08:46.233Z,103.57
2019-02-26T04:11:19.244Z,72.80
2019-02-26T04:13:51.480Z,69.10
2019-02-26T04:16:20.945Z,85.50
2019-02-26T04:18:52.101Z,102.20
2019-02-26T04:21:22.705Z,114.33
2019-02-26T04:23:53.468Z,121.93
2019-02-26T04:26:52.084Z,125.53
2019-02-26T04:29:44.057Z,114.43
2019-02-26T04:32:49.103Z,113.33
2019-02-26T04:35:50.111Z,105.47
2019-02-26T04:38:55.618Z,128.57
2019-02-26T04:41:56.257Z,133.33
2019-02-26T04:45:08.359Z,115.17
2019-02-26T04:47:37.151Z,118.50
2019-02-26T04:50:08.963Z,123.70
2019-02-26T04:52:41.223Z,113.07
2019-02-26T04:55:12.061Z,91.47
2019-02-26T04:57:45.423Z,101.10
2019-02-26T05:00:14.885Z,111.40
2019-02-26T05:02:45.788Z,129.10
2019-02-26T05:05:16.202Z,129.83
2019-02-26T05:07:47.987Z,133.23
2019-02-26T05:10:20.563Z,99.73
2019-02-26T05:12:53.465Z,83.33
2019-02-26T05:15:23.975Z,79.90
2019-02-26T05:17:55.118Z,81.77
2019-02-26T05:20:25.570Z,68.27
2019-02-26T05:22:58.453Z,73.17
2019-02-26T05:25:28.868Z,61.10
2019-02-26T05:27:59.376Z,72.97
2019-02-26T05:30:29.991Z,73.20
2019-02-26T05:33:02.899Z,71.17
2019-02-26T05:35:33.084Z,61.93
2019-02-26T05:38:06.803Z,70.90
2019-02-26T05:40:37.905Z,73.63
2019-02-26T05:43:08.125Z,68.20
2019-02-26T05:45:38.695Z,70.23
2019-02-26T05:48:09.280Z,70.23
2019-02-26T05:50:43.850Z,67.53
2019-02-26T05:53:13.441Z,68.60
2019-02-26T05:55:47.472Z,67.07
2019-02-26T05:58:18.854Z,57.63
2019-02-26T06:00:48.591Z,72.47
2019-02-26T06:03:19.069Z,77.33
2019-02-26T06:05:51.977Z,63.80
2019-02-26T06:08:25.716Z,66.73
2019-02-26T06:10:54.775Z,62.60
2019-02-26T06:13:25.345Z,70.57
2019-02-26T06:15:58.642Z,60.67
2019-02-26T06:18:28.087Z,63.73
2019-02-26T06:21:01.224Z,75.30
2019-02-26T06:23:33.552Z,67.70
2019-02-26T06:26:08.913Z,62.33
2019-02-26T06:28:40.174Z,66.23
2019-02-26T06:31:11.537Z,75.43
2019-02-26T06:33:43.101Z,67.80
2019-02-26T06:36:13.232Z,68.40
2019-02-26T06:38:43.692Z,68.03
2019-02-26T06:41:14.441Z,71.53
2019-02-26T06:43:47.793Z,76.70
2019-02-26T06:46:17.180Z,69.90
2019-02-26T06:48:47.730Z,75.97
2019-02-26T06:51:19.074Z,81.77
2019-02-26T06:53:52.229Z,73.10
2019-02-26T06:56:22.826Z,83.03
2019-02-26T06:58:53.299Z,85.43
2019-02-26T07:01:23.838Z,77.30
2019-02-26T07:03:56.175Z,84.40
2019-02-26T07:06:27.715Z,68.10
2019-02-26T07:08:58.546Z,75.50
2019-02-26T07:11:31.331Z,79.07
2019-02-26T07:14:03.110Z,82.70
2019-02-26T07:16:33.537Z,87.93
2019-02-26T07:19:06.405Z,82.13
2019-02-26T07:21:38.007Z,73.97
2019-02-26T07:24:08.362Z,88.37
2019-02-26T07:26:41.187Z,84.53
2019-02-26T07:29:13.155Z,80.77
2019-02-26T07:31:43.338Z,90.07
2019-02-26T07:34:15.732Z,83.83
2019-02-26T07:36:47.875Z,81.50
2019-02-26T07:39:20.125Z,90.93
2019-02-26T07:41:51.677Z,88.17
2019-02-26T07:44:24.281Z,85.63
2019-02-26T07:46:54.616Z,85.43
2019-02-26T07:49:25.169Z,82.30
2019-02-26T07:51:57.748Z,87.77
2019-02-26T07:54:29.102Z,91.33
2019-02-26T07:57:02.604Z,86.67
2019-02-26T07:59:34.880Z,79.33
2019-02-26T08:02:06.360Z,83.63
2019-02-26T08:04:38.924Z,83.57
2019-02-26T08:07:09.905Z,83.43
2019-02-26T08:09:40.421Z,87.37
2019-02-26T08:12:13.504Z,89.27
2019-02-26T08:14:45.314Z,90.93
2019-02-26T08:17:15.120Z,82.77
2019-02-26T08:19:47.251Z,90.43
2019-02-26T08:22:17.972Z,91.53
2019-02-26T08:24:50.456Z,93.50
2019-02-26T08:27:20.719Z,87.50
2019-02-26T08:29:51.694Z,92.30
2019-02-26T08:32:25.682Z,92.80
2019-02-26T08:34:59.254Z,89.47
2019-02-26T08:37:27.702Z,99.27
2019-02-26T08:39:58.296Z,93.50
2019-02-26T08:42:28.844Z,103.23
2019-02-26T08:44:59.449Z,100.87
2019-02-26T08:47:29.984Z,91.30
2019-02-26T08:50:01.755Z,102.53
2019-02-26T08:52:33.000Z,107.67
2019-02-26T08:55:03.567Z,109.47
2019-02-26T08:57:34.140Z,105.27
2019-02-26T09:00:05.977Z,109.43
2019-02-26T09:02:36.670Z,108.90
2019-02-26T09:05:09.866Z,98.83
2019-02-26T09:07:42.274Z,106.10
2019-02-26T09:10:14.947Z,100.00
2019-02-26T09:12:46.852Z,95.90
2019-02-26T09:15:17.711Z,112.07
2019-02-26T09:17:48.252Z,109.40
2019-02-26T09:20:18.693Z,119.30
2019-02-26T09:22:53.018Z,107.13
2019-02-26T09:25:25.561Z,100.10
2019-02-26T09:27:53.693Z,105.77
2019-02-26T09:30:24.150Z,105.43
2019-02-26T09:32:54.716Z,101.83
2019-02-26T09:35:28.395Z,109.23
2019-02-26T09:38:00.701Z,105.90
2019-02-26T09:40:33.458Z,112.87
2019-02-26T09:43:01.602Z,114.77
2019-02-26T09:45:32.297Z,106.27
2019-02-26T09:48:02.785Z,111.23
2019-02-26T09:50:33.537Z,105.33
2019-02-26T09:53:04.034Z,113.27
2019-02-26T09:55:34.472Z,107.90
2019-02-26T09:58:05.037Z,106.13
2019-02-26T10:00:35.521Z,106.87
2019-02-26T10:03:08.004Z,103.50
2019-02-26T10:05:38.236Z,110.53
2019-02-26T10:08:08.799Z,102.10
2019-02-26T10:10:39.762Z,98.63
2019-02-26T10:13:10.464Z,112.63
2019-02-26T10:15:42.762Z,95.07
2019-02-26T10:18:13.005Z,98.23
2019-02-26T10:20:47.020Z,103.83
2019-02-26T10:23:15.493Z,108.07
2019-02-26T10:25:46.049Z,97.47
2019-02-26T10:28:17.235Z,99.83
2019-02-26T10:30:48.820Z,122.03
2019-02-26T10:33:21.136Z,99.80
2019-02-26T10:35:51.683Z,89.33
2019-02-26T10:38:24.092Z,114.80
2019-02-26T10:40:56.828Z,97.90
2019-02-26T10:43:26.703Z,90.83
2019-02-26T10:45:57.249Z,81.73
2019-02-26T10:48:28.036Z,82.23
2019-02-26T10:50:58.567Z,93.57
2019-02-26T10:53:29.166Z,75.70
2019-02-26T10:55:59.663Z,77.43
2019-02-26T10:58:31.241Z,82.43
2019-02-26T11:01:05.238Z,73.97
2019-02-26T11:03:37.908Z,84.27
2019-02-26T11:06:09.869Z,76.80
2019-02-26T11:08:39.540Z,84.97
2019-02-26T11:11:13.057Z,80.50
2019-02-26T11:13:43.487Z,73.77
2019-02-26T11:16:16.978Z,83.83
2019-02-26T11:18:47.698Z,77.30
2019-02-26T11:21:18.338Z,65.83
2019-02-26T11:23:49.005Z,69.70
2019-02-26T11:26:19.488Z,73.27
2019-02-26T11:28:50.042Z,100.87
2019-02-26T11:31:25.351Z,86.00
2019-02-26T11:33:56.372Z,83.43
2019-02-26T11:36:25.178Z,93.73
2019-02-26T11:38:55.715Z,81.87
2019-02-26T11:41:27.027Z,72.80
2019-02-26T11:43:58.264Z,76.20
2019-02-26T11:46:29.823Z,71.97
2019-02-26T11:49:00.785Z,74.17
2019-02-26T11:51:37.072Z,70.80
2019-02-26T11:54:04.964Z,84.07
2019-02-26T11:56:38.515Z,63.63
2019-02-26T11:59:09.647Z,70.63
2019-02-26T12:01:42.139Z,61.97
2019-02-26T12:04:14.117Z,72.13
2019-02-26T12:06:44.851Z,70.63
2019-02-26T12:09:16.210Z,61.77
2019-02-26T12:11:46.802Z,62.10
2019-02-26T12:14:19.486Z,65.03
2019-02-26T12:16:49.564Z,67.50
2019-02-26T12:19:20.201Z,68.77
2019-02-26T12:21:51.863Z,64.23
2019-02-26T12:24:24.179Z,62.93
2019-02-26T12:26:55.025Z,69.63
2019-02-26T12:29:27.790Z,70.00
2019-02-26T12:31:58.231Z,68.37
2019-02-26T12:34:29.768Z,60.57
2019-02-26T12:37:02.653Z,64.83
2019-02-26T12:39:33.985Z,59.80
2019-02-26T12:42:04.466Z,63.53
2019-02-26T12:44:38.212Z,59.77
2019-02-26T12:47:07.081Z,56.73
2019-02-26T12:49:39.173Z,56.80
2019-02-26T12:52:09.801Z,54.47
2019-02-26T12:54:42.738Z,60.47
2019-02-26T12:57:12.385Z,60.73
2019-02-26T12:59:42.970Z,62.13
2019-02-26T13:02:16.726Z,60.17
2019-02-26T13:04:48.051Z,59.10
2019-02-26T13:07:17.927Z,61.90
2019-02-26T13:09:51.956Z,57.80
2019-02-26T13:12:24.001Z,49.43
2019-02-26T13:14:54.588Z,51.73
2019-02-26T13:17:28.560Z,58.20
2019-02-26T13:19:58.770Z,53.57
2019-02-26T13:22:29.172Z,53.03
2019-02-26T13:25:00.295Z,61.17
2019-02-26T13:27:32.187Z,59.10
2019-02-26T13:30:02.728Z,62.07
2019-02-26T13:32:54.344Z,57.57
2019-02-26T13:35:08.040Z,60.10
2019-02-26T13:37:41.942Z,54.97
2019-02-26T13:40:13.489Z,53.10
2019-02-26T13:42:49.913Z,56.90
2019-02-26T13:45:18.121Z,52.03
2019-02-26T13:47:48.701Z,47.90
2019-02-26T13:50:25.175Z,52.77
2019-02-26T13:52:55.678Z,49.63
2019-02-26T13:55:26.244Z,47.00
2019-02-26T13:57:56.833Z,44.80
2019-02-26T14:00:27.338Z,47.03
2019-02-26T14:02:58.016Z,71.17
2019-02-26T14:05:28.610Z,90.60
2019-02-26T14:07:59.072Z,92.93
2019-02-26T14:10:29.518Z,84.57
2019-02-26T14:13:00.050Z,77.87
2019-02-26T14:15:30.768Z,62.87
2019-02-26T14:18:01.247Z,38.70
2019-02-26T14:20:33.180Z,37.13
2019-02-26T14:23:03.587Z,38.07
2019-02-26T14:25:34.163Z,34.93
2019-02-26T14:28:04.616Z,30.63
2019-02-26T14:30:35.264Z,32.20
2019-02-26T14:33:05.790Z,26.73
2019-02-26T14:35:36.276Z,31.23
2019-02-26T14:38:06.943Z,32.73
2019-02-26T14:40:37.522Z,35.23
2019-02-26T14:43:08.032Z,37.33
2019-02-26T14:45:38.540Z,34.20
2019-02-26T14:48:09.174Z,35.90
2019-02-26T14:50:40.820Z,34.17
2019-02-26T14:53:11.491Z,40.03
2019-02-26T14:55:42.126Z,43.70
2019-02-26T14:58:12.642Z,40.53
2019-02-26T15:00:43.124Z,31.70
2019-02-26T15:03:13.853Z,31.00
2019-02-26T15:05:44.380Z,39.37
2019-02-26T15:08:14.872Z,36.07
2019-02-26T15:13:43.982Z,38.73
2019-02-26T15:16:14.490Z,35.73
2019-02-26T15:18:45.001Z,37.13
2019-02-26T15:21:16.016Z,40.23
2019-02-26T15:23:46.570Z,50.87
2019-02-26T15:26:18.249Z,42.47
2019-02-26T15:28:49.105Z,46.43
2019-02-26T15:31:19.717Z,42.97
2019-02-26T15:33:52.243Z,52.37
2019-02-26T15:36:25.197Z,43.33
2019-02-26T15:38:55.735Z,50.63
2019-02-26T15:41:26.464Z,43.70
2019-02-26T15:43:57.081Z,51.40
2019-02-26T15:46:28.615Z,49.77
2019-02-26T15:48:59.796Z,53.73
2019-02-26T15:51:30.357Z,56.90
2019-02-26T15:54:02.130Z,54.93
2019-02-26T15:56:32.647Z,51.47
2019-02-26T15:59:05.268Z,58.30
2019-02-26T16:01:35.766Z,60.23
2019-02-26T16:04:06.269Z,56.20
2019-02-26T16:06:36.939Z,59.30
2019-02-26T16:09:07.968Z,49.57
2019-02-26T16:11:39.061Z,52.43
2019-02-26T16:14:09.719Z,51.40
2019-02-26T16:16:40.319Z,49.87
2019-02-26T16:19:10.979Z,48.23
2019-02-26T16:21:44.337Z,54.30
2019-02-26T16:24:14.929Z,51.43
2019-02-26T16:26:45.421Z,55.77
2019-02-26T16:29:16.608Z,57.27
2019-02-26T16:31:47.415Z,55.10
2019-02-26T16:34:19.966Z,56.87
2019-02-26T16:36:50.920Z,55.00
2019-02-26T16:39:24.676Z,53.73
2019-02-26T16:41:54.489Z,53.37
2019-02-26T16:44:25.387Z,50.57
2019-02-26T16:46:56.025Z,50.07
2019-02-26T16:49:27.878Z,51.77
2019-02-26T16:52:00.867Z,51.57
2019-02-26T16:54:31.197Z,48.30
2019-02-26T16:57:01.759Z,53.63
2019-02-26T16:59:32.441Z,60.97
2019-02-26T17:02:02.859Z,53.40
2019-02-26T17:04:33.713Z,52.97
2019-02-26T17:07:04.331Z,61.67
2019-02-26T17:09:35.015Z,51.03
2019-02-26T17:12:05.507Z,59.20
2019-02-26T17:14:36.070Z,67.43
2019-02-26T17:17:06.696Z,63.10
2019-02-26T17:19:37.179Z,65.47
2019-02-26T17:22:07.753Z,75.67
2019-02-26T17:24:38.298Z,72.10
2019-02-26T17:27:09.151Z,77.77
2019-02-26T17:29:39.621Z,67.77
2019-02-26T17:32:10.141Z,82.67
2019-02-26T17:34:40.697Z,76.13
2019-02-26T17:37:11.163Z,76.90
2019-02-26T17:39:41.767Z,76.80
2019-02-26T17:42:12.329Z,79.60
2019-02-26T17:44:42.976Z,69.97
2019-02-26T17:47:13.593Z,70.70
2019-02-26T17:49:44.100Z,73.30
2019-02-26T17:52:14.752Z,72.83
2019-02-26T17:54:45.259Z,83.27
2019-02-26T17:57:16.016Z,79.03
2019-02-26T17:59:46.496Z,76.87
2019-02-26T18:02:17.000Z,73.03
2019-02-26T18:04:47.527Z,76.53
2019-02-26T18:07:18.223Z,79.53
2019-02-26T18:09:50.575Z,76.77
2019-02-26T18:12:21.106Z,84.87
2019-02-26T18:14:51.786Z,76.30
2019-02-26T18:17:22.336Z,85.40
2019-02-26T18:19:52.937Z,75.90
2019-02-26T18:22:23.690Z,80.47
2019-02-26T18:24:54.282Z,79.23
2019-02-26T18:27:24.872Z,89.50
2019-02-26T18:29:55.428Z,78.83
2019-02-26T18:32:26.007Z,77.90
2019-02-26T18:34:56.586Z,81.60
2019-02-26T18:37:27.218Z,88.37
2019-02-26T18:39:57.694Z,87.67
2019-02-26T18:42:28.229Z,78.13
2019-02-26T18:44:58.805Z,92.67
2019-02-26T18:47:29.373Z,94.67
2019-02-26T18:49:59.945Z,87.87
2019-02-26T18:52:30.566Z,89.33
2019-02-26T18:55:01.172Z,92.57
2019-02-26T18:57:32.292Z,95.87
2019-02-26T19:00:02.848Z,88.00
2019-02-26T19:02:36.011Z,89.07
2019-02-26T19:05:07.629Z,101.67
2019-02-26T19:07:39.168Z,99.33
2019-02-26T19:10:12.465Z,82.77
2019-02-26T19:12:43.172Z,84.67
2019-02-26T19:15:15.406Z,84.83
2019-02-26T19:17:48.110Z,87.77
2019-02-26T19:20:20.443Z,81.30
2019-02-26T19:22:52.030Z,92.93
2019-02-26T19:25:22.815Z,89.43
2019-02-26T19:27:53.685Z,94.87
2019-02-26T19:30:24.206Z,97.10
2019-02-26T19:32:57.046Z,93.37
2019-02-26T19:35:27.574Z,88.27
2019-02-26T19:37:58.872Z,92.97
2019-02-26T19:40:32.364Z,93.27
2019-02-26T19:43:02.920Z,97.83
2019-02-26T19:45:33.580Z,98.97
2019-02-26T19:48:04.326Z,105.90
2019-02-26T19:50:35.504Z,95.50
2019-02-26T19:53:06.074Z,104.73
2019-02-26T19:55:37.437Z,106.87
2019-02-26T19:58:08.106Z,106.33
2019-02-26T20:00:38.697Z,95.30
2019-02-26T20:03:09.228Z,108.20
2019-02-26T20:05:41.209Z,109.13
2019-02-26T20:08:12.126Z,102.37
2019-02-26T20:10:42.647Z,110.97
2019-02-26T20:13:13.488Z,97.00
2019-02-26T20:15:44.004Z,102.30
2019-02-26T20:18:20.534Z,120.97
2019-02-26T20:20:46.958Z,101.60
2019-02-26T20:23:17.770Z,110.57
2019-02-26T20:25:48.654Z,116.03
2019-02-26T20:28:20.288Z,104.40
2019-02-26T20:30:50.807Z,118.97
2019-02-26T20:33:21.397Z,109.90
2019-02-26T20:35:51.858Z,117.20
2019-02-26T20:38:22.442Z,120.13
2019-02-26T20:40:53.142Z,123.27
2019-02-26T20:43:23.692Z,122.30
2019-02-26T20:45:54.214Z,122.57
2019-02-26T20:48:24.666Z,124.90
2019-02-26T20:50:56.464Z,112.43
2019-02-26T20:53:27.098Z,115.17
2019-02-26T20:55:58.186Z,121.57
2019-02-26T20:58:28.653Z,124.13
2019-02-26T21:00:59.384Z,122.53
2019-02-26T21:03:30.018Z,130.40
2019-02-26T21:06:01.063Z,113.83
2019-02-26T21:08:31.910Z,131.43
2019-02-26T21:11:02.478Z,124.13
2019-02-26T21:13:34.870Z,127.70
2019-02-26T21:16:05.286Z,137.77
2019-02-26T21:18:35.840Z,127.63
2019-02-26T21:21:06.374Z,132.63
2019-02-26T21:23:36.942Z,133.17
2019-02-26T21:26:07.447Z,123.03
2019-02-26T21:28:38.060Z,130.87
2019-02-26T21:31:09.919Z,127.40
2019-02-26T21:33:40.672Z,133.63
2019-02-26T21:36:11.205Z,124.03
2019-02-26T21:38:44.506Z,128.23
2019-02-26T21:41:14.998Z,126.27
2019-02-26T21:43:45.513Z,130.67
2019-02-26T21:46:16.012Z,139.50
2019-02-26T21:48:46.532Z,131.90
2019-02-26T21:51:17.057Z,140.80
2019-02-26T21:53:49.219Z,133.50
2019-02-26T21:56:19.595Z,134.13
2019-02-26T21:58:50.271Z,136.80
2019-02-26T22:01:20.908Z,139.10
2019-02-26T22:03:51.418Z,124.30
2019-02-26T22:06:21.924Z,135.37
2019-02-26T22:08:52.458Z,121.57
2019-02-26T22:11:22.943Z,130.90
2019-02-26T22:13:54.022Z,139.07
2019-02-26T22:16:24.477Z,141.43
2019-02-26T22:18:54.996Z,133.57
2019-02-26T22:21:25.572Z,138.90
2019-02-26T22:23:56.263Z,137.27
2019-02-26T22:26:27.885Z,136.13
2019-02-26T22:28:58.430Z,136.57
2019-02-26T22:31:29.428Z,143.03
2019-02-26T22:34:00.091Z,149.27
2019-02-26T22:36:30.792Z,137.27
2019-02-26T22:39:03.665Z,132.77
2019-02-26T22:41:36.075Z,131.03
2019-02-26T22:44:06.703Z,130.13
2019-02-26T22:46:37.175Z,145.73
2019-02-26T22:49:07.964Z,142.80
2019-02-26T22:51:38.663Z,148.57
2019-02-26T22:54:09.880Z,151.80
2019-02-26T22:56:40.882Z,161.00
2019-02-26T22:59:11.457Z,167.30
2019-02-26T23:01:44.603Z,171.90
2019-02-26T23:04:19.276Z,170.80
2019-02-26T23:06:47.862Z,171.93
2019-02-26T23:09:21.433Z,170.03
2019-02-26T23:11:52.712Z,174.07
2019-02-26T23:14:24.761Z,176.27
2019-02-26T23:16:55.642Z,184.60
2019-02-26T23:19:26.212Z,196.20
2019-02-26T23:21:56.872Z,180.17
2019-02-26T23:24:28.467Z,170.80
2019-02-26T23:26:59.713Z,206.60
2019-02-26T23:29:30.357Z,195.33
2019-02-26T23:32:00.987Z,177.77
2019-02-26T23:34:31.526Z,198.67
2019-02-26T23:37:02.039Z,192.80
2019-02-26T23:39:32.629Z,201.53
2019-02-26T23:42:05.834Z,220.10
2019-02-26T23:44:37.206Z,219.13
2019-02-26T23:47:07.879Z,227.53
2019-02-26T23:49:38.383Z,219.37
2019-02-26T23:52:08.884Z,225.20
2019-02-26T23:54:39.942Z,223.93
2019-02-26T23:57:11.797Z,225.90
2019-02-26T23:59:42.541Z,240.80
